createdAt,value
2017-11-22T00:00:25.929Z,1006.6
2017-11-22T00:01:47.935Z,1006.58
2017-11-22T00:03:09.651Z,1006.6
2017-11-22T00:04:31.613Z,1006.65
2017-11-22T00:05:53.330Z,1006.63
2017-11-22T00:07:15.320Z,1006.6
2017-11-22T00:08:37.328Z,1006.59
2017-11-22T00:09:59.051Z,1006.57
2017-11-22T00:11:21.057Z,1006.62
2017-11-22T00:12:42.773Z,1006.57
2017-11-22T00:14:04.757Z,1006.51
2017-11-22T00:15:27.036Z,1006.47
2017-11-22T00:16:48.876Z,1006.54
2017-11-22T00:18:10.456Z,1006.51
2017-11-22T00:19:32.709Z,1006.52
2017-11-22T00:20:54.699Z,1006.44
2017-11-22T00:22:16.412Z,1006.45
2017-11-22T00:23:38.400Z,1006.47
2017-11-22T00:25:00.120Z,1006.5
2017-11-22T00:26:22.115Z,1006.53
2017-11-22T00:27:43.592Z,1006.48
2017-11-22T00:29:05.026Z,1006.48
2017-11-22T00:30:26.196Z,1006.49
2017-11-22T00:31:47.915Z,1006.53
2017-11-22T00:33:09.896Z,1006.46
2017-11-22T00:34:31.705Z,1006.46
2017-11-22T00:35:53.151Z,1006.44
2017-11-22T00:37:15.147Z,1006.46
2017-11-22T00:38:36.905Z,1006.48
2017-11-22T00:39:58.656Z,1006.48
2017-11-22T00:41:20.116Z,1006.46
2017-11-22T00:42:41.835Z,1006.46
2017-11-22T00:44:03.278Z,1006.41
2017-11-22T00:45:25.275Z,1006.41
2017-11-22T00:46:47.559Z,1006.39
2017-11-22T00:48:09.603Z,1006.38
2017-11-22T00:49:31.588Z,1006.4
2017-11-22T00:50:53.305Z,1006.41
2017-11-22T00:52:15.034Z,1006.42
2017-11-22T00:53:36.493Z,1006.41
2017-11-22T00:54:58.745Z,1006.37
2017-11-22T00:56:20.811Z,1006.37
2017-11-22T00:57:43.085Z,1006.32
2017-11-22T00:59:05.131Z,1006.32
2017-11-22T01:00:27.155Z,1006.28
2017-11-22T01:01:48.879Z,1006.25
2017-11-22T01:03:10.595Z,1006.24
2017-11-22T01:04:32.618Z,1006.21
2017-11-22T01:05:55.129Z,1006.21
2017-11-22T01:07:16.606Z,1006.25
2017-11-22T01:08:38.856Z,1006.23
2017-11-22T01:10:00.906Z,1006.19
2017-11-22T01:11:22.973Z,1006.32
2017-11-22T01:12:44.946Z,1006.24
2017-11-22T01:14:06.655Z,1006.28
2017-11-22T01:15:28.376Z,1006.27
2017-11-22T01:16:50.616Z,1006.23
2017-11-22T01:18:12.623Z,1006.26
2017-11-22T01:19:34.327Z,1006.27
2017-11-22T01:20:56.316Z,1006.24
2017-11-22T01:22:18.025Z,1006.2
2017-11-22T01:23:39.507Z,1006.22
2017-11-22T01:25:01.771Z,1006.24
2017-11-22T01:26:23.004Z,1006.22
2017-11-22T01:27:44.752Z,1006.21
2017-11-22T01:29:07.023Z,1006.18
2017-11-22T01:30:29.273Z,1006.17
2017-11-22T01:31:51.269Z,1006.12
2017-11-22T01:33:12.976Z,1006.1
2017-11-22T01:34:34.410Z,1006.06
2017-11-22T01:35:56.205Z,1006.03
2017-11-22T01:37:17.642Z,1006.07
2017-11-22T01:38:39.356Z,1006.02
2017-11-22T01:40:01.076Z,1006.08
2017-11-22T01:41:23.045Z,1006.05
2017-11-22T01:42:44.757Z,1006.07
2017-11-22T01:44:06.815Z,1005.99
2017-11-22T01:45:27.995Z,1006.03
2017-11-22T01:46:49.446Z,1006
2017-11-22T01:48:11.156Z,1005.96
2017-11-22T01:49:32.906Z,1005.96
2017-11-22T01:50:54.650Z,1005.95
2017-11-22T01:52:16.398Z,1005.91
2017-11-22T01:53:38.514Z,1005.92
2017-11-22T01:55:00.755Z,1005.88
2017-11-22T01:56:22.453Z,1005.88
2017-11-22T01:57:43.953Z,1005.85
2017-11-22T01:59:05.458Z,1005.86
2017-11-22T02:00:27.436Z,1005.86
2017-11-22T02:01:48.865Z,1005.93
2017-11-22T02:03:10.606Z,1005.93
2017-11-22T02:04:32.366Z,1005.88
2017-11-22T02:05:54.333Z,1005.81
2017-11-22T02:07:16.586Z,1005.89
2017-11-22T02:08:38.038Z,1005.87
2017-11-22T02:10:00.295Z,1005.85
2017-11-22T02:11:22.278Z,1005.83
2017-11-22T02:12:44.010Z,1005.86
2017-11-22T02:14:06.049Z,1005.82
2017-11-22T02:15:27.849Z,1005.82
2017-11-22T02:16:50.076Z,1005.78
2017-11-22T02:18:11.601Z,1005.72
2017-11-22T02:19:33.586Z,1005.77
2017-11-22T02:20:55.290Z,1005.75
2017-11-22T02:22:17.565Z,1005.71
2017-11-22T02:23:39.255Z,1005.66
2017-11-22T02:25:00.967Z,1005.64
2017-11-22T02:26:22.675Z,1005.64
2017-11-22T02:27:44.640Z,1005.61
2017-11-22T02:29:06.403Z,1005.64
2017-11-22T02:30:28.385Z,1005.71
2017-11-22T02:31:50.179Z,1005.7
2017-11-22T02:33:11.878Z,1005.65
2017-11-22T02:34:33.317Z,1005.6
2017-11-22T02:35:55.576Z,1005.64
2017-11-22T02:37:17.309Z,1005.65
2017-11-22T02:38:39.376Z,1005.65
2017-11-22T02:40:01.349Z,1005.64
2017-11-22T02:41:23.359Z,1005.61
2017-11-22T02:42:45.384Z,1005.61
2017-11-22T02:44:07.355Z,1005.62
2017-11-22T02:45:29.348Z,1005.6
2017-11-22T02:46:51.724Z,1005.58
2017-11-22T02:48:13.176Z,1005.55
2017-11-22T02:49:35.177Z,1005.51
2017-11-22T02:50:57.165Z,1005.49
2017-11-22T02:52:19.122Z,1005.44
2017-11-22T02:53:41.284Z,1005.41
2017-11-22T02:55:03.235Z,1005.43
2017-11-22T02:56:24.406Z,1005.49
2017-11-22T02:57:46.477Z,1005.42
2017-11-22T02:59:07.986Z,1005.45
2017-11-22T03:00:29.293Z,1005.47
2017-11-22T03:01:50.745Z,1005.46
2017-11-22T03:03:12.447Z,1005.52
2017-11-22T03:04:34.424Z,1005.5
2017-11-22T03:05:56.265Z,1005.56
2017-11-22T03:07:17.736Z,1005.56
2017-11-22T03:08:39.736Z,1005.47
2017-11-22T03:10:01.759Z,1005.45
2017-11-22T03:11:23.196Z,1005.5
2017-11-22T03:12:45.474Z,1005.48
2017-11-22T03:14:07.257Z,1005.4
2017-11-22T03:15:29.378Z,1005.36
2017-11-22T03:16:51.326Z,1005.37
2017-11-22T03:18:12.794Z,1005.38
2017-11-22T03:19:34.796Z,1005.32
2017-11-22T03:20:56.864Z,1005.32
2017-11-22T03:22:18.307Z,1005.36
2017-11-22T03:23:39.795Z,1005.35
2017-11-22T03:25:01.567Z,1005.36
2017-11-22T03:26:22.993Z,1005.32
2017-11-22T03:27:44.746Z,1005.27
2017-11-22T03:29:07.065Z,1005.24
2017-11-22T03:30:28.575Z,1005.36
2017-11-22T03:31:49.484Z,1005.3
2017-11-22T03:33:11.436Z,1005.27
2017-11-22T03:34:33.420Z,1005.26
2017-11-22T03:35:55.406Z,1005.24
2017-11-22T03:37:17.391Z,1005.26
2017-11-22T03:38:39.086Z,1005.22
2017-11-22T03:40:01.155Z,1005.23
2017-11-22T03:41:23.449Z,1005.18
2017-11-22T03:42:45.439Z,1005.25
2017-11-22T03:44:07.454Z,1005.27
2017-11-22T03:45:29.418Z,1005.27
2017-11-22T03:46:51.416Z,1005.27
2017-11-22T03:48:12.854Z,1005.3
2017-11-22T03:49:34.016Z,1005.3
2017-11-22T03:50:56.125Z,1005.32
2017-11-22T03:52:18.406Z,1005.26
2017-11-22T03:53:40.397Z,1005.29
2017-11-22T03:55:02.481Z,1005.31
2017-11-22T03:56:24.209Z,1005.27
2017-11-22T03:57:46.215Z,1005.19
2017-11-22T03:59:08.273Z,1005.2
2017-11-22T04:00:29.167Z,1005.21
2017-11-22T04:01:50.867Z,1005.1
2017-11-22T04:03:12.938Z,1005.07
2017-11-22T04:04:34.753Z,1005.06
2017-11-22T04:05:57.005Z,1005.06
2017-11-22T04:07:18.455Z,1005.03
2017-11-22T04:08:40.719Z,1004.99
2017-11-22T04:10:02.767Z,1004.9
2017-11-22T04:11:24.865Z,1004.97
2017-11-22T04:12:46.857Z,1005.02
2017-11-22T04:14:08.595Z,1005.04
2017-11-22T04:15:30.428Z,1005.02
2017-11-22T04:16:51.929Z,1005.01
2017-11-22T04:18:13.899Z,1004.96
2017-11-22T04:19:35.082Z,1004.99
2017-11-22T04:20:56.300Z,1004.99
2017-11-22T04:22:17.738Z,1005.03
2017-11-22T04:23:39.485Z,1005.02
2017-11-22T04:25:01.466Z,1004.91
2017-11-22T04:26:23.482Z,1004.95
2017-11-22T04:27:44.985Z,1005
2017-11-22T04:29:06.985Z,1004.95
2017-11-22T04:30:29.280Z,1004.91
2017-11-22T04:31:50.986Z,1004.89
2017-11-22T04:33:12.838Z,1004.88
2017-11-22T04:34:34.269Z,1004.82
2017-11-22T04:35:55.975Z,1004.83
2017-11-22T04:37:17.977Z,1004.79
2017-11-22T04:38:39.714Z,1004.82
2017-11-22T04:40:01.437Z,1004.78
2017-11-22T04:41:23.441Z,1004.83
2017-11-22T04:42:45.207Z,1004.86
2017-11-22T04:44:07.215Z,1004.82
2017-11-22T04:45:28.711Z,1004.84
2017-11-22T04:46:50.476Z,1004.85
2017-11-22T04:48:11.925Z,1004.83
2017-11-22T04:49:33.695Z,1004.84
2017-11-22T04:50:54.865Z,1004.88
2017-11-22T04:52:17.135Z,1004.87
2017-11-22T04:53:38.581Z,1004.89
2017-11-22T04:54:59.753Z,1004.98
2017-11-22T04:56:21.469Z,1004.98
2017-11-22T04:57:43.276Z,1004.99
2017-11-22T04:59:04.826Z,1004.99
2017-11-22T05:00:26.634Z,1004.98
2017-11-22T05:01:48.344Z,1004.98
2017-11-22T05:03:10.055Z,1004.9
2017-11-22T05:04:31.752Z,1004.91
2017-11-22T05:05:53.760Z,1004.88
2017-11-22T05:07:15.227Z,1004.89
2017-11-22T05:08:36.935Z,1004.92
2017-11-22T05:09:58.638Z,1004.87
2017-11-22T05:11:20.094Z,1004.83
2017-11-22T05:12:41.835Z,1004.84
2017-11-22T05:14:03.292Z,1004.83
2017-11-22T05:15:25.278Z,1004.84
2017-11-22T05:16:46.705Z,1004.83
2017-11-22T05:18:08.134Z,1004.82
2017-11-22T05:19:29.872Z,1004.88
2017-11-22T05:20:51.588Z,1004.85
2017-11-22T05:22:13.714Z,1004.88
2017-11-22T05:23:35.777Z,1004.89
2017-11-22T05:24:57.301Z,1004.83
2017-11-22T05:26:19.281Z,1004.9
2017-11-22T05:27:40.795Z,1004.86
2017-11-22T05:29:02.934Z,1004.9
2017-11-22T05:30:24.678Z,1004.89
2017-11-22T05:31:46.124Z,1004.92
2017-11-22T05:33:07.588Z,1004.86
2017-11-22T05:34:29.586Z,1004.91
2017-11-22T05:35:51.598Z,1004.91
2017-11-22T05:37:13.592Z,1004.9
2017-11-22T05:38:35.598Z,1004.92
2017-11-22T05:39:57.585Z,1004.95
2017-11-22T05:41:19.605Z,1004.92
2017-11-22T05:42:41.349Z,1004.92
2017-11-22T05:44:02.906Z,1004.85
2017-11-22T05:45:24.905Z,1004.85
2017-11-22T05:46:47.166Z,1004.81
2017-11-22T05:48:08.615Z,1004.7
2017-11-22T05:49:30.105Z,1004.81
2017-11-22T05:50:51.823Z,1004.83
2017-11-22T05:52:12.984Z,1004.82
2017-11-22T05:53:34.435Z,1004.92
2017-11-22T05:54:56.684Z,1004.84
2017-11-22T05:56:18.396Z,1004.92
2017-11-22T05:57:39.859Z,1005.02
2017-11-22T05:59:01.845Z,1005.03
2017-11-22T06:00:23.284Z,1004.98
2017-11-22T06:01:45.547Z,1004.96
2017-11-22T06:03:07.545Z,1004.99
2017-11-22T06:04:29.544Z,1004.92
2017-11-22T06:05:51.285Z,1004.94
2017-11-22T06:07:12.470Z,1004.89
2017-11-22T06:08:34.449Z,1004.88
2017-11-22T06:09:56.174Z,1004.93
2017-11-22T06:11:17.960Z,1004.94
2017-11-22T06:12:39.680Z,1004.87
2017-11-22T06:14:01.679Z,1004.93
2017-11-22T06:15:23.742Z,1004.88
2017-11-22T06:16:45.222Z,1004.87
2017-11-22T06:18:07.203Z,1004.89
2017-11-22T06:19:29.050Z,1004.81
2017-11-22T06:20:51.048Z,1004.78
2017-11-22T06:22:13.336Z,1004.76
2017-11-22T06:23:35.051Z,1004.73
2017-11-22T06:24:57.150Z,1004.72
2017-11-22T06:26:18.618Z,1004.71
2017-11-22T06:27:40.698Z,1004.63
2017-11-22T06:29:02.718Z,1004.67
2017-11-22T06:30:24.450Z,1004.73
2017-11-22T06:31:46.295Z,1004.76
2017-11-22T06:33:08.283Z,1004.79
2017-11-22T06:34:29.739Z,1004.85
2017-11-22T06:35:51.025Z,1004.95
2017-11-22T06:37:12.795Z,1004.98
2017-11-22T06:38:34.814Z,1005
2017-11-22T06:39:56.264Z,1005.05
2017-11-22T06:41:17.803Z,1005.09
2017-11-22T06:42:39.264Z,1005.11
2017-11-22T06:44:01.276Z,1005.14
2017-11-22T06:45:22.793Z,1005.17
2017-11-22T06:46:44.776Z,1005.22
2017-11-22T06:48:06.495Z,1005.2
2017-11-22T06:49:27.942Z,1005.26
2017-11-22T06:50:49.478Z,1005.27
2017-11-22T06:52:11.823Z,1005.25
2017-11-22T06:53:34.080Z,1005.33
2017-11-22T06:54:55.523Z,1005.35
2017-11-22T06:56:16.794Z,1005.37
2017-11-22T06:57:38.817Z,1005.3
2017-11-22T06:59:00.815Z,1005.35
2017-11-22T07:00:23.078Z,1005.37
2017-11-22T07:01:44.783Z,1005.38
2017-11-22T07:03:06.319Z,1005.44
2017-11-22T07:04:28.600Z,1005.45
2017-11-22T07:05:50.104Z,1005.44
2017-11-22T07:07:11.814Z,1005.51
2017-11-22T07:08:34.163Z,1005.52
2017-11-22T07:09:56.173Z,1005.49
2017-11-22T07:11:17.149Z,1005.55
2017-11-22T07:12:38.591Z,1005.57
2017-11-22T07:14:00.595Z,1005.6
2017-11-22T07:15:22.604Z,1005.59
2017-11-22T07:16:44.861Z,1005.56
2017-11-22T07:18:06.856Z,1005.58
2017-11-22T07:19:28.950Z,1005.55
2017-11-22T07:20:51.213Z,1005.59
2017-11-22T07:22:12.773Z,1005.55
2017-11-22T07:23:34.620Z,1005.47
2017-11-22T07:24:56.749Z,1005.5
2017-11-22T07:26:18.482Z,1005.49
2017-11-22T07:27:39.391Z,1005.48
2017-11-22T07:29:01.485Z,1005.47
2017-11-22T07:30:22.735Z,1005.51
2017-11-22T07:31:44.184Z,1005.52
2017-11-22T07:33:06.205Z,1005.5
2017-11-22T07:34:27.990Z,1005.47
2017-11-22T07:35:50.184Z,1005.4
2017-11-22T07:37:11.876Z,1005.46
2017-11-22T07:38:33.599Z,1005.52
2017-11-22T07:39:55.079Z,1005.49
2017-11-22T07:41:16.825Z,1005.5
2017-11-22T07:42:38.294Z,1005.49
2017-11-22T07:44:00.559Z,1005.51
2017-11-22T07:45:22.304Z,1005.48
2017-11-22T07:46:44.295Z,1005.47
2017-11-22T07:48:06.004Z,1005.46
2017-11-22T07:49:27.975Z,1005.47
2017-11-22T07:50:49.407Z,1005.43
2017-11-22T07:52:11.153Z,1005.44
2017-11-22T07:53:32.906Z,1005.46
2017-11-22T07:54:54.936Z,1005.47
2017-11-22T07:56:16.924Z,1005.48
2017-11-22T07:57:38.644Z,1005.48
2017-11-22T07:59:00.144Z,1005.5
2017-11-22T08:00:21.854Z,1005.48
2017-11-22T08:01:43.845Z,1005.48
2017-11-22T08:03:05.595Z,1005.52
2017-11-22T08:04:27.445Z,1005.53
2017-11-22T08:05:49.224Z,1005.56
2017-11-22T08:07:11.196Z,1005.59
2017-11-22T08:08:33.204Z,1005.58
2017-11-22T08:09:55.025Z,1005.61
2017-11-22T08:11:16.744Z,1005.64
2017-11-22T08:12:38.930Z,1005.68
2017-11-22T08:14:00.644Z,1005.62
2017-11-22T08:15:22.426Z,1005.6
2017-11-22T08:16:44.688Z,1005.63
2017-11-22T08:18:07.054Z,1005.6
2017-11-22T08:19:29.153Z,1005.61
2017-11-22T08:20:50.987Z,1005.62
2017-11-22T08:22:12.796Z,1005.61
2017-11-22T08:23:34.024Z,1005.61
2017-11-22T08:24:56.273Z,1005.55
2017-11-22T08:26:17.974Z,1005.56
2017-11-22T08:27:40.347Z,1005.59
2017-11-22T08:29:02.364Z,1005.62
2017-11-22T08:30:24.370Z,1005.64
2017-11-22T08:31:46.374Z,1005.68
2017-11-22T08:33:08.107Z,1005.65
2017-11-22T08:34:30.359Z,1005.67
2017-11-22T08:35:52.085Z,1005.68
2017-11-22T08:37:13.887Z,1005.67
2017-11-22T08:38:35.874Z,1005.71
2017-11-22T08:39:57.875Z,1005.7
2017-11-22T08:41:19.596Z,1005.72
2017-11-22T08:42:41.608Z,1005.71
2017-11-22T08:44:03.085Z,1005.75
2017-11-22T08:45:24.588Z,1005.71
2017-11-22T08:46:45.991Z,1005.71
2017-11-22T08:48:07.244Z,1005.76
2017-11-22T08:49:28.967Z,1005.71
2017-11-22T08:50:51.294Z,1005.71
2017-11-22T08:52:12.849Z,1005.77
2017-11-22T08:53:34.306Z,1005.74
2017-11-22T08:54:56.574Z,1005.73
2017-11-22T08:56:17.753Z,1005.66
2017-11-22T08:57:39.204Z,1005.71
2017-11-22T08:59:00.667Z,1005.73
2017-11-22T09:00:22.503Z,1005.71
2017-11-22T09:01:44.241Z,1005.71
2017-11-22T09:03:06.506Z,1005.7
2017-11-22T09:04:27.813Z,1005.7
2017-11-22T09:05:49.531Z,1005.67
2017-11-22T09:07:11.040Z,1005.81
2017-11-22T09:08:33.305Z,1005.79
2017-11-22T09:09:55.027Z,1005.74
2017-11-22T09:11:16.740Z,1005.88
2017-11-22T09:12:38.467Z,1005.7
2017-11-22T09:13:59.641Z,1005.8
2017-11-22T09:15:21.862Z,1005.85
2017-11-22T09:16:43.580Z,1005.9
2017-11-22T09:18:05.374Z,1005.97
2017-11-22T09:19:27.695Z,1006.01
2017-11-22T09:20:49.453Z,1006
2017-11-22T09:22:10.891Z,1006.03
2017-11-22T09:23:32.604Z,1006.08
2017-11-22T09:24:54.137Z,1006.07
2017-11-22T09:26:15.324Z,1006.09
2017-11-22T09:27:37.057Z,1006.2
2017-11-22T09:28:58.792Z,1006.14
2017-11-22T09:30:21.180Z,1006.22
2017-11-22T09:31:43.172Z,1006.17
2017-11-22T09:33:05.226Z,1006.15
2017-11-22T09:34:27.241Z,1006.05
2017-11-22T09:35:48.970Z,1006.21
2017-11-22T09:37:10.955Z,1006.25
2017-11-22T09:38:32.940Z,1006.21
2017-11-22T09:39:54.386Z,1006.16
2017-11-22T09:41:15.853Z,1006.22
2017-11-22T09:42:37.306Z,1006.18
2017-11-22T09:43:59.015Z,1006.2
2017-11-22T09:45:20.852Z,1006.19
2017-11-22T09:46:42.860Z,1006.23
2017-11-22T09:48:04.897Z,1006.24
2017-11-22T09:49:26.898Z,1006.25
2017-11-22T09:50:48.439Z,1006.27
2017-11-22T09:52:10.426Z,1006.22
2017-11-22T09:53:32.442Z,1006.28
2017-11-22T09:54:53.623Z,1006.26
2017-11-22T09:56:15.612Z,1006.3
2017-11-22T09:57:37.304Z,1006.29
2017-11-22T09:58:59.094Z,1006.24
2017-11-22T10:00:20.906Z,1006.32
2017-11-22T10:01:43.185Z,1006.34
2017-11-22T10:03:04.090Z,1006.3
2017-11-22T10:04:26.096Z,1006.36
2017-11-22T10:05:48.099Z,1006.26
2017-11-22T10:07:09.799Z,1006.3
2017-11-22T10:08:30.962Z,1006.36
2017-11-22T10:09:52.766Z,1006.34
2017-11-22T10:11:14.475Z,1006.33
2017-11-22T10:12:35.989Z,1006.37
2017-11-22T10:13:58.257Z,1006.35
2017-11-22T10:15:19.686Z,1006.35
2017-11-22T10:16:41.435Z,1006.36
2017-11-22T10:18:03.166Z,1006.38
2017-11-22T10:19:24.882Z,1006.42
2017-11-22T10:20:46.884Z,1006.37
2017-11-22T10:22:08.329Z,1006.38
2017-11-22T10:23:30.124Z,1006.34
2017-11-22T10:24:51.844Z,1006.36
2017-11-22T10:26:13.565Z,1006.42
2017-11-22T10:27:35.013Z,1006.39
2017-11-22T10:28:56.874Z,1006.37
2017-11-22T10:30:18.373Z,1006.41
2017-11-22T10:31:40.091Z,1006.41
2017-11-22T10:33:01.833Z,1006.39
2017-11-22T10:34:23.544Z,1006.41
2017-11-22T10:35:45.797Z,1006.31
2017-11-22T10:37:07.813Z,1006.36
2017-11-22T10:38:29.244Z,1006.44
2017-11-22T10:39:51.233Z,1006.33
2017-11-22T10:41:13.048Z,1006.38
2017-11-22T10:42:34.501Z,1006.37
2017-11-22T10:43:56.765Z,1006.34
2017-11-22T10:45:18.204Z,1006.39
2017-11-22T10:46:39.725Z,1006.4
2017-11-22T10:48:01.604Z,1006.4
2017-11-22T10:49:23.060Z,1006.39
2017-11-22T10:50:45.316Z,1006.38
2017-11-22T10:52:07.312Z,1006.36
2017-11-22T10:53:28.466Z,1006.33
2017-11-22T10:54:50.714Z,1006.44
2017-11-22T10:56:12.410Z,1006.43
2017-11-22T10:57:34.195Z,1006.4
2017-11-22T10:58:55.703Z,1006.39
2017-11-22T11:00:17.169Z,1006.37
2017-11-22T11:01:39.165Z,1006.36
2017-11-22T11:03:01.024Z,1006.37
2017-11-22T11:04:22.472Z,1006.3
2017-11-22T11:05:44.769Z,1006.4
2017-11-22T11:07:06.875Z,1006.4
2017-11-22T11:08:28.860Z,1006.36
2017-11-22T11:09:50.563Z,1006.38
2017-11-22T11:11:11.761Z,1006.39
2017-11-22T11:12:33.483Z,1006.37
2017-11-22T11:13:54.913Z,1006.41
2017-11-22T11:15:17.205Z,1006.41
2017-11-22T11:16:38.734Z,1006.37
2017-11-22T11:17:59.901Z,1006.43
2017-11-22T11:19:21.454Z,1006.42
2017-11-22T11:20:43.440Z,1006.4
2017-11-22T11:22:05.425Z,1006.35
2017-11-22T11:23:26.862Z,1006.37
2017-11-22T11:24:49.106Z,1006.36
2017-11-22T11:26:11.160Z,1006.39
2017-11-22T11:27:33.165Z,1006.41
2017-11-22T11:28:54.874Z,1006.43
2017-11-22T11:30:16.618Z,1006.37
2017-11-22T11:31:38.758Z,1006.45
2017-11-22T11:33:01.043Z,1006.46
2017-11-22T11:34:22.765Z,1006.47
2017-11-22T11:35:44.737Z,1006.44
2017-11-22T11:37:06.465Z,1006.41
2017-11-22T11:38:28.488Z,1006.43
2017-11-22T11:39:49.939Z,1006.42
2017-11-22T11:41:11.973Z,1006.38
2017-11-22T11:42:34.059Z,1006.41
2017-11-22T11:43:56.045Z,1006.49
2017-11-22T11:45:18.055Z,1006.43
2017-11-22T11:46:39.779Z,1006.37
2017-11-22T11:48:00.946Z,1006.43
2017-11-22T11:49:23.034Z,1006.41
2017-11-22T11:50:45.334Z,1006.42
2017-11-22T11:52:07.066Z,1006.45
2017-11-22T11:53:28.524Z,1006.42
2017-11-22T11:54:50.504Z,1006.42
2017-11-22T11:56:12.216Z,1006.47
2017-11-22T11:57:33.664Z,1006.38
2017-11-22T11:58:55.378Z,1006.43
2017-11-22T12:00:17.362Z,1006.49
2017-11-22T12:01:39.224Z,1006.47
2017-11-22T12:03:01.301Z,1006.43
2017-11-22T12:04:23.133Z,1006.41
2017-11-22T12:05:44.849Z,1006.39
2017-11-22T12:07:06.584Z,1006.42
2017-11-22T12:08:28.584Z,1006.45
2017-11-22T12:09:50.295Z,1006.41
2017-11-22T12:11:12.274Z,1006.4
2017-11-22T12:12:34.555Z,1006.35
2017-11-22T12:13:56.825Z,1006.39
2017-11-22T12:15:18.830Z,1006.37
2017-11-22T12:16:40.817Z,1006.33
2017-11-22T12:18:02.808Z,1006.37
2017-11-22T12:19:24.253Z,1006.34
2017-11-22T12:20:45.695Z,1006.35
2017-11-22T12:22:07.781Z,1006.35
2017-11-22T12:23:29.866Z,1006.35
2017-11-22T12:24:51.864Z,1006.35
2017-11-22T12:26:13.364Z,1006.35
2017-11-22T12:27:35.386Z,1006.41
2017-11-22T12:28:57.104Z,1006.38
2017-11-22T12:30:18.834Z,1006.37
2017-11-22T12:31:41.169Z,1006.42
2017-11-22T12:33:02.889Z,1006.35
2017-11-22T12:34:24.595Z,1006.38
2017-11-22T12:35:46.660Z,1006.38
2017-11-22T12:37:08.112Z,1006.41
2017-11-22T12:38:29.600Z,1006.38
2017-11-22T12:39:51.324Z,1006.36
2017-11-22T12:41:13.082Z,1006.36
2017-11-22T12:42:34.795Z,1006.34
2017-11-22T12:43:57.060Z,1006.32
2017-11-22T12:45:19.054Z,1006.36
2017-11-22T12:46:41.064Z,1006.32
2017-11-22T12:48:03.053Z,1006.3
2017-11-22T12:49:24.880Z,1006.26
2017-11-22T12:50:46.605Z,1006.33
2017-11-22T12:52:08.334Z,1006.3
2017-11-22T12:53:29.790Z,1006.34
2017-11-22T12:54:51.858Z,1006.29
2017-11-22T12:56:13.975Z,1006.34
2017-11-22T12:57:36.266Z,1006.27
2017-11-22T12:58:57.739Z,1006.32
2017-11-22T13:00:19.496Z,1006.35
2017-11-22T13:01:41.790Z,1006.32
2017-11-22T13:03:03.516Z,1006.31
2017-11-22T13:04:25.494Z,1006.29
2017-11-22T13:05:47.269Z,1006.33
2017-11-22T13:07:09.526Z,1006.28
2017-11-22T13:08:31.530Z,1006.25
2017-11-22T13:09:52.982Z,1006.26
2017-11-22T13:11:15.386Z,1006.23
2017-11-22T13:12:37.096Z,1006.19
2017-11-22T13:13:59.125Z,1006.18
2017-11-22T13:15:20.877Z,1006.15
2017-11-22T13:16:42.436Z,1006.17
2017-11-22T13:18:04.245Z,1006.1
2017-11-22T13:19:25.474Z,1006.09
2017-11-22T13:20:47.376Z,1006.15
2017-11-22T13:22:09.113Z,1006.08
2017-11-22T13:23:30.824Z,1006.08
2017-11-22T13:24:52.001Z,1006.08
2017-11-22T13:26:13.548Z,1006.06
2017-11-22T13:27:35.850Z,1006.17
2017-11-22T13:28:57.934Z,1006.11
2017-11-22T13:30:19.687Z,1006.19
2017-11-22T13:31:41.966Z,1006.23
2017-11-22T13:33:04.265Z,1006.22
2017-11-22T13:34:26.092Z,1006.22
2017-11-22T13:35:48.374Z,1006.25
2017-11-22T13:37:10.104Z,1006.26
2017-11-22T13:38:32.125Z,1006.22
2017-11-22T13:39:54.448Z,1006.18
2017-11-22T13:41:15.935Z,1006.2
2017-11-22T13:42:38.035Z,1006.25
2017-11-22T13:43:59.206Z,1006.2
2017-11-22T13:45:21.500Z,1006.18
2017-11-22T13:46:43.527Z,1006.14
2017-11-22T13:48:05.337Z,1006.11
2017-11-22T13:49:26.832Z,1006.13
2017-11-22T13:50:48.854Z,1006.05
2017-11-22T13:52:10.324Z,1006.1
2017-11-22T13:53:32.036Z,1006.06
2017-11-22T13:54:54.123Z,1006.03
2017-11-22T13:56:15.585Z,1006.06
2017-11-22T13:57:37.424Z,1006.07
2017-11-22T13:58:59.716Z,1006.09
2017-11-22T14:00:21.445Z,1006.19
2017-11-22T14:01:43.196Z,1006.18
2017-11-22T14:03:05.225Z,1006.16
2017-11-22T14:04:26.466Z,1006.18
2017-11-22T14:05:48.295Z,1006.16
2017-11-22T14:07:10.564Z,1006.09
2017-11-22T14:08:32.060Z,1006.18
2017-11-22T14:09:54.104Z,1006.16
2017-11-22T14:11:16.250Z,1006.22
2017-11-22T14:12:37.778Z,1006.18
2017-11-22T14:14:00.081Z,1006.2
2017-11-22T14:15:22.452Z,1006.2
2017-11-22T14:16:44.433Z,1006.24
2017-11-22T14:18:06.477Z,1006.27
2017-11-22T14:19:28.776Z,1006.27
2017-11-22T14:20:50.516Z,1006.26
2017-11-22T14:22:12.244Z,1006.31
2017-11-22T14:23:34.305Z,1006.29
2017-11-22T14:24:55.777Z,1006.27
2017-11-22T14:26:17.534Z,1006.2
2017-11-22T14:27:38.990Z,1006.15
2017-11-22T14:29:01.275Z,1006.17
2017-11-22T14:30:23.309Z,1006.14
2017-11-22T14:31:44.497Z,1006.11
2017-11-22T14:33:06.230Z,1006.14
2017-11-22T14:34:27.974Z,1006.16
2017-11-22T14:35:49.975Z,1006.05
2017-11-22T14:37:11.454Z,1006.07
2017-11-22T14:38:33.877Z,1006.07
2017-11-22T14:39:55.085Z,1006.07
2017-11-22T14:41:17.134Z,1006.02
2017-11-22T14:42:39.144Z,1005.97
2017-11-22T14:44:01.731Z,1006.02
2017-11-22T14:45:23.842Z,1005.99
2017-11-22T14:46:45.895Z,1005.99
2017-11-22T14:48:07.953Z,1006.01
2017-11-22T14:49:29.688Z,1005.99
2017-11-22T14:50:52.029Z,1005.92
2017-11-22T14:52:14.346Z,1006
2017-11-22T14:53:36.364Z,1005.94
2017-11-22T14:54:58.375Z,1005.91
2017-11-22T14:56:19.848Z,1005.88
2017-11-22T14:57:41.856Z,1005.94
2017-11-22T14:59:03.930Z,1005.98
2017-11-22T15:00:26.232Z,1006.01
2017-11-22T15:01:48.536Z,1005.97
2017-11-22T15:03:10.278Z,1005.9
2017-11-22T15:04:31.786Z,1005.92
2017-11-22T15:05:53.555Z,1005.9
2017-11-22T15:07:15.296Z,1005.94
2017-11-22T15:08:36.505Z,1005.95
2017-11-22T15:09:58.512Z,1005.91
2017-11-22T15:11:20.773Z,1005.94
2017-11-22T15:12:43.097Z,1005.92
2017-11-22T15:14:05.135Z,1006.01
2017-11-22T15:15:26.605Z,1005.99
2017-11-22T15:16:48.989Z,1005.94
2017-11-22T15:18:10.996Z,1005.93
2017-11-22T15:19:32.729Z,1005.92
2017-11-22T15:20:54.866Z,1005.96
2017-11-22T15:22:16.627Z,1005.91
2017-11-22T15:23:38.354Z,1005.89
2017-11-22T15:24:59.802Z,1005.89
2017-11-22T15:26:21.577Z,1005.87
2017-11-22T15:27:43.443Z,1005.86
2017-11-22T15:29:05.268Z,1005.88
2017-11-22T15:30:27.577Z,1005.88
2017-11-22T15:31:49.073Z,1005.89
2017-11-22T15:33:11.386Z,1005.85
2017-11-22T15:34:33.490Z,1005.92
2017-11-22T15:35:55.514Z,1005.89
2017-11-22T15:37:17.620Z,1005.87
2017-11-22T15:38:39.353Z,1005.87
2017-11-22T15:40:01.630Z,1005.85
2017-11-22T15:41:23.369Z,1005.87
2017-11-22T15:42:45.388Z,1005.84
2017-11-22T15:44:07.695Z,1005.84
2017-11-22T15:45:29.544Z,1005.85
2017-11-22T15:46:51.303Z,1005.89
2017-11-22T15:48:13.387Z,1005.84
2017-11-22T15:49:35.873Z,1005.87
2017-11-22T15:50:57.886Z,1005.83
2017-11-22T15:52:20.005Z,1005.84
2017-11-22T15:53:41.743Z,1005.85
2017-11-22T15:55:03.786Z,1005.79
2017-11-22T15:56:25.826Z,1005.81
2017-11-22T15:57:47.830Z,1005.77
2017-11-22T15:59:09.966Z,1005.82
2017-11-22T16:00:31.861Z,1005.75
2017-11-22T16:01:53.325Z,1005.7
2017-11-22T16:03:15.632Z,1005.64
2017-11-22T16:04:37.523Z,1005.65
2017-11-22T16:05:59.553Z,1005.62
2017-11-22T16:07:21.660Z,1005.59
2017-11-22T16:08:43.446Z,1005.52
2017-11-22T16:10:05.464Z,1005.55
2017-11-22T16:11:27.775Z,1005.52
2017-11-22T16:12:49.633Z,1005.49
2017-11-22T16:14:11.368Z,1005.47
2017-11-22T16:15:33.378Z,1005.53
2017-11-22T16:16:55.400Z,1005.45
2017-11-22T16:18:17.538Z,1005.45
2017-11-22T16:19:39.828Z,1005.44
2017-11-22T16:21:02.137Z,1005.41
2017-11-22T16:22:23.634Z,1005.41
2017-11-22T16:23:45.664Z,1005.41
2017-11-22T16:25:07.665Z,1005.39
2017-11-22T16:26:29.149Z,1005.36
2017-11-22T16:27:50.952Z,1005.32
2017-11-22T16:29:13.232Z,1005.29
2017-11-22T16:30:35.158Z,1005.3
2017-11-22T16:31:56.999Z,1005.32
2017-11-22T16:33:18.567Z,1005.35